Jack C. Davis Observatory, Carson City, Nevada Weather observations

Data are for observation ending at time listed.
 Day   Time    Ave.   Ave.  Ave.  Vector   Max.   Stn.    Total    Solar   Ave.  
  of    of     Air    Rel.  Wind   Wind    Wind   Baro.  Precip.   Rad.    Soil  
Year   Day     Temp.  Hum.  Speed  Dir.    Gust   Pres.                    Temp. 
2018   (PST)    F      %     mph   deg.    mph     mb.     in.     W/m2     F   
------------------------------------------------------------------------------
 201   17:00   76.6    43   10.4   163     16.4   849.6    0.00     456    999.0
 201   17:10   76.7    42   10.4   176     17.5   849.6    0.00     340    999.0
 201   17:20   76.6    42   10.3   177     17.3   849.6    0.00     313    999.0
 201   17:30   75.7    42   10.4   185     16.3   849.5    0.00     189    999.0
 201   17:40   76.0    41    9.1   177     14.8   849.5    0.00     197    999.0
 201   17:50   76.4    42    9.0   160     15.5   849.5    0.00     213    999.0
 201   18:00   75.7    43    9.3   160     16.3   849.5    0.00     141    999.0
 201   18:10   75.2    43   10.1   151     17.2   849.6    0.00     156    999.0
 201   18:20   74.9    44    8.8   149     13.7   849.5    0.00     116    999.0
 201   18:30   73.8    45    8.4   147     14.2   849.6    0.00      43    999.0
 201   18:40   72.7    48    7.3   138     11.2   849.6    0.00      35    999.0
 201   18:50   71.8    51    6.8   145     12.3   849.6    0.00      26    999.0
 201   19:00   72.0    48    7.2   149     12.4   849.6    0.00      22    999.0
 201   19:10   71.8    49    5.4   135      8.6   849.6    0.00      17    999.0
 201   19:20   71.3    49    5.3   114      9.3   849.5    0.00       9    999.0
 201   19:30   71.2    49    4.8   128      9.1   849.5    0.00       4    999.0
 201   19:40   71.2    49    4.6   105      8.0   849.5    0.00       1    999.0
 201   19:50   71.0    50    4.8   113      8.0   849.5    0.00       0    999.0
 201   20:00   71.1    49    2.4   135      5.8   849.4    0.00       0    999.0
 201   20:10   70.1    51    1.5   330      3.5   849.5    0.00       0    999.0
 201   20:20   70.3    51    1.4    24      4.7   849.5    0.00       0    999.0
 201   20:30   69.3    54    1.8   293      4.1   849.6    0.00       0    999.0
 201   20:40   68.8    55    1.1   321      3.4   849.7    0.00       0    999.0
 201   20:50   68.5    56    1.6    33      3.7   849.8    0.00       0    999.0
 201   21:00   68.2    58    2.7    41      5.6   849.8    0.00       0    999.0
 201   21:10   67.8    59    2.8    48      5.0   849.8    0.00       0    999.0
 201   21:20   67.3    60    1.5   321      5.0   849.7    0.00       0    999.0
 201   21:30   67.0    60    1.5    26      4.2   849.6    0.00       0    999.0
 201   21:40   65.9    62    1.9   290      4.6   849.6    0.00       0    999.0
 201   21:50   66.4    62    0.6     4      2.6   849.5    0.00       0    999.0
 201   22:00   65.6    63    1.9   282      5.0   849.5    0.00       0    999.0
 201   22:10   65.2    63    1.4   292      2.9   849.4    0.00       0    999.0
 201   22:20   65.3    64    0.9   326      3.0   849.4    0.00       0    999.0
 201   22:30   65.1    64    1.2   294      2.9   849.4    0.00       0    999.0
 201   22:40   64.3    65    2.4   299      4.2   849.2    0.00       0    999.0
 201   22:50   63.8    67    1.3   345      3.1   849.2    0.00       0    999.0
 201   23:00   64.7    65    1.5   340      3.4   849.2    0.00       0    999.0
 201   23:10   64.2    66    1.5   288      3.9   849.2    0.00       0    999.0
 201   23:20   63.2    68    2.1   293      3.1   849.1    0.00       0    999.0
 201   23:30   63.1    68    0.9   318      3.0   849.0    0.00       0    999.0
 201   23:40   63.1    68    1.1   291      2.8   849.0    0.00       0    999.0
 201   23:50   62.5    69    1.6   298      3.8   848.9    0.00       0    999.0
 202    0:00   62.0    71    2.1   289      4.4   848.9    0.00       0    999.0
 202    0:10   62.4    70    2.1   314      4.4   848.9    0.00       0    999.0
 202    0:20   62.9    68    1.7   324      3.1   848.9    0.00       0    999.0
 202    0:30   63.0    69    2.0   311      3.7   848.9    0.00       0    999.0
 202    0:40   63.1    68    1.8   298      3.9   848.9    0.00       0    999.0
 202    0:50   63.2    67    2.1   314      3.7   848.8    0.00       0    999.0
 202    1:00   63.2    67    2.0   317      3.6   848.8    0.00       0    999.0
 202    1:10   62.9    67    2.7   283      5.5   848.8    0.00       0    999.0
 202    1:20   63.0    67    2.6   276      6.9   848.9    0.00       0    999.0
 202    1:30   62.7    67    2.9   274      6.9   848.9    0.00       0    999.0
 202    1:40   62.0    69    2.6   291      4.5   848.9    0.00       0    999.0
 202    1:50   62.3    69    2.5   304      3.5   848.9    0.00       0    999.0
 202    2:00   62.2    69    1.4   290      3.1   848.9    0.00       0    999.0
 202    2:10   61.8    69    1.6   298      5.1   848.9    0.00       0    999.0
 202    2:20   62.2    69    1.0   299      2.9   848.9    0.00       0    999.0
 202    2:30   62.8    68    0.7    64      3.1   848.9    0.00       0    999.0
 202    2:40   61.6    69    3.0   266      6.4   849.0    0.00       0    999.0
 202    2:50   61.5    69    3.1   289      5.4   849.0    0.00       0    999.0
 202    3:00   61.2    70    2.5   298      5.3   848.9    0.00       0    999.0
 202    3:10   61.2    70    2.2   311      4.8   848.9    0.00       0    999.0
 202    3:20   61.2    70    2.2   285      4.1   848.9    0.00       0    999.0
 202    3:30   61.1    72    1.7   309      3.4   848.9    0.00       0    999.0
 202    3:40   60.9    72    2.2   297      3.6   848.9    0.00       0    999.0
 202    3:50   60.6    72    2.9   280      5.6   849.0    0.00       0    999.0
 202    4:00   60.9    71    2.4   297      4.4   848.9    0.00       0    999.0
 202    4:10   60.5    71    2.5   285      5.0   848.9    0.00       0    999.0
 202    4:20   61.5    69    2.0   286      6.0   848.9    0.00       0    999.0
 202    4:30   61.0    70    1.1   296      3.5   848.9    0.00       0    999.0
 202    4:40   60.9    70    1.6   227      3.8   849.0    0.00       1    999.0
 202    4:50   60.3    72    1.4   252      3.5   849.1    0.00       1    999.0
 202    5:00   59.7    72    2.1   271      4.5   849.1    0.00       5    999.0
 202    5:10   59.8    73    2.0   274      5.1   849.2    0.00      14    999.0
 202    5:20   60.2    72    1.9   302      4.4   849.2    0.00      29    999.0
 202    5:30   61.0    72    1.7   306      3.8   849.3    0.00      48    999.0
 202    5:40   62.2    70    1.1   355      3.4   849.3    0.00      71    999.0
 202    5:50   63.0    69    1.6   272      3.1   849.3    0.00      93    999.0
 202    6:00   64.3    66    1.7   291      3.7   849.3    0.00     115    999.0
 202    6:10   66.0    63    1.2   147      3.9   849.4    0.00     140    999.0
 202    6:20   67.0    61    1.0   106      2.5   849.4    0.00     169    999.0
 202    6:30   67.7    60    0.9    75      2.8   849.5    0.00     202    999.0
 202    6:40   68.5    58    1.4    37      4.1   849.5    0.00     240    999.0
 202    6:50   68.4    59    1.7    86      3.7   849.5    0.00     272    999.0
 202    7:00   68.3    59    2.5    97      5.6   849.5    0.00     301    999.0
 202    7:10   68.6    58    1.9   118      4.1   849.5    0.00     323    999.0
 202    7:20   69.6    57    1.4   106      3.0   849.6    0.00     353    999.0
 202    7:30   71.2    54    0.9    76      3.6   849.5    0.00     381    999.0
 202    7:40   72.0    52    1.4    72      4.1   849.6    0.00     409    999.0
 202    7:50   71.1    53    2.4    59      4.7   849.5    0.00     440    999.0
 202    8:00   72.9    50    1.9    98      4.8   849.6    0.00     476    999.0
 202    8:10   74.1    48    1.6    63      4.2   849.6    0.00     507    999.0
 202    8:20   74.8    46    2.3   104      4.4   849.6    0.00     537    999.0
 202    8:30   75.1    46    2.8   103      5.6   849.6    0.00     568    999.0
 202    8:40   75.8    44    2.4    88      5.3   849.6    0.00     599    999.0
 202    8:50   77.8    40    1.9    94      4.8   849.5    0.00     631    999.0
 202    9:00   79.2    38    1.4    95      4.1   849.5    0.00     655    999.0
 202    9:10   81.6    35    1.1   127      3.5   849.4    0.00     690    999.0
 202    9:20   83.0    33    1.9    88      5.3   849.4    0.00     712    999.0
 202    9:30   81.8    35    2.7    63      6.6   849.4    0.00     736    999.0
 202    9:40   82.1    34    2.7    99      5.6   849.6    0.00     750    999.0
 202    9:50   82.8    33    3.0    98      6.3   849.5    0.00     770    999.0
 202   10:00   83.3    32    2.4   106      4.8   849.4    0.00     790    999.0
 202   10:10   83.7    31    3.3    84      7.2   849.3    0.00     804    999.0
 202   10:20   84.9    29    3.1    95      7.6   849.3    0.00     823    999.0
 202   10:30   84.9    30    4.5   104      8.6   849.2    0.00     833    999.0
 202   10:40   85.7    28    3.9    69      9.3   849.2    0.00     858    999.0
 202   10:50   86.8    27    4.4   107      8.6   849.1    0.00     865    999.0
 202   11:00   87.1    26    5.2    88     10.2   849.0    0.00     896    999.0
 202   11:10   88.7    24    4.9   334     11.0   848.9    0.00     931    999.0
 202   11:20   89.7    22    6.2   240     12.3   848.8    0.00     958    999.0
 202   11:30   89.1    22    6.3   249     11.0   848.7    0.00     982    999.0
 202   11:40   89.3    21    8.5   229     14.7   848.6    0.00     727    999.0
 202   11:50   88.9    21    5.3   255     10.4   848.6    0.00     851    999.0
 202   12:00   91.2    19    4.3   231     12.3   848.5    0.00     927    999.0
 202   12:10   90.8    20    5.6   228     11.5   848.5    0.00    1030    999.0
 202   12:20   90.6    21    6.1   208     11.9   848.4    0.00     512    999.0
 202   12:30   87.3    23    7.2   231     11.2   848.3    0.00     224    999.0
 202   12:40   86.8    24    7.0   226     10.8   848.2    0.00     172    999.0
 202   12:50   86.3    25    7.2   224     12.4   848.1    0.00     179    999.0
 202   13:00   86.3    24    4.8   268      8.7   848.2    0.00     151    999.0
 202   13:10   86.4    25    4.3   232      8.3   848.1    0.00     154    999.0
 202   13:20   86.2    25    5.5   230      9.6   848.1    0.00     167    999.0
 202   13:30   86.1    25    6.3   241     11.4   848.1    0.00     177    999.0
 202   13:40   86.3    25    4.2   229      7.9   848.2    0.00     197    999.0
 202   13:50   86.8    24    5.6   214     10.8   848.2    0.00     232    999.0
 202   14:00   85.1    30   10.2   145     22.6   848.2    0.00     276    999.0
 202   14:10   79.9    39   13.1   148     20.8   848.2    0.00     147    999.0
 202   14:20   78.5    42    6.8   146     11.8   848.4    0.00     119    999.0
 202   14:30   77.6    44    7.2   131     12.9   848.3    0.00     131    999.0
 202   14:40   76.7    46    9.2   150     16.0   848.7    0.00     112    999.0
 202   14:50   75.3    46   11.8   162     21.0   848.9    0.00      88    999.0
 202   15:00   74.4    46    9.9   151     18.0   848.9    0.00      72    999.0
 202   15:10   75.1    42    8.8   142     14.6   848.9    0.00      74    999.0
 202   15:20   72.8    49    9.5   112     13.9   848.8    0.00      97    999.0
 202   15:30   72.1    50    8.1    80     13.2   849.1    0.00     144    999.0
 202   15:40   74.5    44    5.4   115     13.9   849.3    0.00     485    999.0
 202   15:50   76.5    42    5.6    75     12.4   849.4    0.00     408    999.0
 202   16:00   75.2    44    5.2    37      9.6   849.5    0.00     153    999.0
 202   16:10   74.4    44    3.1    19     10.7   849.6    0.00     130    999.0
 202   16:20   75.1    42    3.0    47      7.5   849.6    0.00     127    999.0
 202   16:30   73.4    49    4.9    65      7.0   849.6    0.00     273    999.0
 202   16:40   74.1    49    3.7    57      6.4   849.4    0.00     365    999.0
 202   16:50   76.4    44    4.8    66      9.1   849.6    0.00     515    999.0

Return to Yerington, Nevada graphs page.


Western Regional Climate Center,wrcc@dri.edu